createdAt,value
2023-04-26T00:00:17.592Z,9.00
2023-04-26T00:02:50.599Z,7.13
2023-04-26T00:05:24.647Z,5.68
2023-04-26T00:07:57.882Z,7.00
2023-04-26T00:10:30.921Z,5.68
2023-04-26T00:13:03.220Z,6.07
2023-04-26T00:15:36.664Z,7.75
2023-04-26T00:18:08.956Z,6.47
2023-04-26T00:20:41.391Z,5.22
2023-04-26T00:23:13.666Z,6.32
2023-04-26T00:25:45.995Z,6.57
2023-04-26T00:28:18.369Z,9.90
2023-04-26T00:30:51.594Z,6.55
2023-04-26T00:33:23.960Z,6.93
2023-04-26T00:35:56.330Z,7.78
2023-04-26T00:38:28.613Z,6.63
2023-04-26T00:41:00.922Z,5.68
2023-04-26T00:43:33.198Z,8.13
2023-04-26T00:46:06.659Z,7.95
2023-04-26T00:48:39.128Z,4.00
2023-04-26T00:51:12.423Z,7.82
2023-04-26T00:53:44.736Z,6.28
2023-04-26T00:56:17.461Z,4.15
2023-04-26T00:58:51.211Z,7.85
2023-04-26T01:01:24.542Z,5.70
2023-04-26T01:03:57.159Z,4.93
2023-04-26T01:06:33.807Z,4.88
2023-04-26T01:09:09.325Z,4.82
2023-04-26T01:11:43.032Z,8.50
2023-04-26T01:14:15.612Z,5.63
2023-04-26T01:16:50.223Z,6.80
2023-04-26T01:19:22.714Z,6.47
2023-04-26T01:21:55.604Z,5.93
2023-04-26T01:24:28.680Z,5.47
2023-04-26T01:27:03.430Z,5.15
2023-04-26T01:29:35.989Z,8.02
2023-04-26T01:32:09.691Z,6.50
2023-04-26T01:34:42.031Z,5.65
2023-04-26T01:37:16.359Z,6.63
2023-04-26T01:39:49.350Z,6.63
2023-04-26T01:42:21.830Z,6.55
2023-04-26T01:44:54.143Z,5.55
2023-04-26T01:47:27.819Z,8.35
2023-04-26T01:50:00.331Z,9.77
2023-04-26T01:52:32.991Z,9.30
2023-04-26T01:55:07.579Z,12.02
2023-04-26T01:57:39.948Z,17.95
2023-04-26T02:00:12.793Z,22.27
2023-04-26T02:02:47.771Z,24.25
2023-04-26T02:05:20.361Z,26.08
2023-04-26T02:07:52.743Z,21.10
2023-04-26T02:10:26.127Z,39.25
2023-04-26T02:12:58.582Z,24.90
2023-04-26T02:15:30.974Z,19.80
2023-04-26T02:18:03.520Z,20.13
2023-04-26T02:20:37.246Z,16.85
2023-04-26T02:23:09.893Z,13.38
2023-04-26T02:25:45.936Z,15.05
2023-04-26T02:28:18.299Z,20.92
2023-04-26T02:30:50.929Z,22.98
2023-04-26T02:33:24.388Z,23.05
2023-04-26T02:35:57.189Z,23.55
2023-04-26T02:38:29.613Z,19.65
2023-04-26T02:41:04.251Z,21.17
2023-04-26T02:43:37.082Z,11.27
2023-04-26T02:46:09.488Z,8.70
2023-04-26T02:48:41.859Z,9.32
2023-04-26T02:51:14.146Z,7.70
2023-04-26T02:53:46.478Z,6.05
2023-04-26T02:56:19.981Z,20.98
2023-04-26T02:58:52.502Z,30.00
2023-04-26T03:01:25.290Z,24.92
2023-04-26T03:03:57.843Z,20.90
2023-04-26T03:06:30.280Z,15.18
2023-04-26T03:09:04.877Z,16.80
2023-04-26T03:11:38.038Z,15.90
2023-04-26T03:14:10.419Z,15.65
2023-04-26T03:16:43.952Z,17.08
2023-04-26T03:19:16.394Z,12.10
2023-04-26T03:21:49.194Z,12.15
2023-04-26T03:24:22.967Z,12.02
2023-04-26T03:26:57.237Z,8.75
2023-04-26T03:29:30.020Z,7.95
2023-04-26T03:32:02.406Z,10.25
2023-04-26T03:34:34.724Z,13.60
2023-04-26T03:37:07.100Z,16.90
2023-04-26T03:39:39.520Z,19.48
2023-04-26T03:42:12.565Z,14.15
2023-04-26T03:44:45.181Z,12.43
2023-04-26T03:47:17.577Z,12.50
2023-04-26T03:49:50.045Z,11.88
2023-04-26T03:52:22.477Z,13.27
2023-04-26T03:54:54.914Z,14.45
2023-04-26T03:57:28.636Z,13.32
2023-04-26T04:00:01.782Z,13.23
2023-04-26T04:02:34.253Z,17.63
2023-04-26T04:05:07.916Z,19.52
2023-04-26T04:07:40.455Z,19.92
2023-04-26T04:10:12.864Z,18.30
2023-04-26T04:12:47.218Z,19.80
2023-04-26T04:15:21.043Z,16.58
2023-04-26T04:17:54.572Z,20.10
2023-04-26T04:20:27.085Z,21.75
2023-04-26T04:23:03.645Z,16.42
2023-04-26T04:25:36.070Z,14.85
2023-04-26T04:28:13.908Z,18.35
2023-04-26T04:30:46.627Z,17.92
2023-04-26T04:33:19.554Z,15.02
2023-04-26T04:35:52.135Z,13.63
2023-04-26T04:38:24.845Z,12.35
2023-04-26T04:40:58.169Z,12.55
2023-04-26T04:43:31.314Z,15.52
2023-04-26T04:46:04.012Z,13.20
2023-04-26T04:48:38.167Z,17.60
2023-04-26T04:51:11.319Z,11.88
2023-04-26T04:53:43.945Z,10.60
2023-04-26T04:56:17.713Z,16.50
2023-04-26T04:58:50.974Z,14.52
2023-04-26T05:01:24.668Z,12.88
2023-04-26T05:04:01.516Z,10.23
2023-04-26T05:06:34.298Z,13.90
2023-04-26T05:09:06.758Z,15.57
2023-04-26T05:11:39.845Z,14.70
2023-04-26T05:14:14.751Z,12.23
2023-04-26T05:16:48.032Z,11.52
2023-04-26T05:19:20.580Z,10.68
2023-04-26T05:21:53.123Z,13.85
2023-04-26T05:24:25.820Z,10.25
2023-04-26T05:26:58.807Z,8.73
2023-04-26T05:29:34.264Z,7.68
2023-04-26T05:32:12.087Z,7.70
2023-04-26T05:35:13.892Z,8.50
2023-04-26T05:37:46.294Z,8.63
2023-04-26T05:40:19.777Z,7.40
2023-04-26T05:42:52.467Z,9.55
2023-04-26T05:45:26.468Z,18.30
2023-04-26T05:47:58.935Z,9.38
2023-04-26T05:50:32.005Z,11.48
2023-04-26T05:53:04.489Z,12.10
2023-04-26T05:55:36.952Z,20.20
2023-04-26T05:58:09.986Z,16.35
2023-04-26T06:00:43.797Z,7.78
2023-04-26T06:03:16.518Z,7.57
2023-04-26T06:05:49.140Z,5.72
2023-04-26T06:08:21.708Z,8.07
2023-04-26T06:10:55.248Z,5.47
2023-04-26T06:13:27.526Z,7.97
2023-04-26T06:16:00.999Z,6.38
2023-04-26T06:18:33.542Z,9.18
2023-04-26T06:21:06.274Z,8.02
2023-04-26T06:23:38.782Z,5.03
2023-04-26T06:26:11.194Z,7.85
2023-04-26T06:28:44.200Z,6.28
2023-04-26T06:31:17.386Z,4.88
2023-04-26T06:33:50.465Z,4.53
2023-04-26T06:36:23.671Z,6.50
2023-04-26T06:38:56.450Z,5.75
2023-04-26T06:41:28.728Z,5.47
2023-04-26T06:44:01.451Z,4.82
2023-04-26T06:46:37.612Z,4.10
2023-04-26T06:49:10.736Z,5.95
2023-04-26T06:51:43.837Z,7.20
2023-04-26T06:54:16.114Z,5.22
2023-04-26T06:56:48.447Z,5.00
2023-04-26T06:59:20.799Z,6.60
2023-04-26T07:01:53.980Z,5.68
2023-04-26T07:04:26.654Z,5.05
2023-04-26T07:06:59.197Z,4.65
2023-04-26T07:09:31.581Z,5.68
2023-04-26T07:12:04.597Z,4.20
2023-04-26T07:14:39.913Z,6.20
2023-04-26T07:17:12.903Z,3.72
2023-04-26T07:19:45.200Z,4.78
2023-04-26T07:22:17.631Z,5.25
2023-04-26T07:24:50.052Z,6.47
2023-04-26T07:27:22.756Z,5.80
2023-04-26T07:29:55.603Z,2.55
2023-04-26T07:32:28.805Z,3.97
2023-04-26T07:35:01.834Z,4.35
2023-04-26T07:37:34.578Z,2.45
2023-04-26T07:40:09.763Z,4.88
2023-04-26T07:42:42.164Z,3.22
2023-04-26T07:45:15.178Z,3.33
2023-04-26T07:47:48.222Z,3.15
2023-04-26T07:50:20.809Z,4.82
2023-04-26T07:52:53.166Z,3.47
2023-04-26T07:55:25.791Z,2.80
2023-04-26T07:57:58.316Z,3.80
2023-04-26T08:00:30.690Z,4.13
2023-04-26T08:03:03.895Z,3.70
2023-04-26T08:05:36.527Z,3.05
2023-04-26T08:08:09.160Z,3.67
2023-04-26T08:10:41.972Z,4.55
2023-04-26T08:13:14.278Z,3.55
2023-04-26T08:15:46.893Z,3.38
2023-04-26T08:18:19.916Z,5.85
2023-04-26T08:20:54.489Z,4.00
2023-04-26T08:23:27.671Z,3.88
2023-04-26T08:25:59.996Z,3.65
2023-04-26T08:28:32.873Z,3.65
2023-04-26T08:31:05.478Z,3.22
2023-04-26T08:33:38.648Z,3.33
2023-04-26T08:36:12.085Z,3.53
2023-04-26T08:38:44.520Z,3.13
2023-04-26T08:41:23.811Z,2.88
2023-04-26T08:43:57.954Z,4.22
2023-04-26T08:46:34.325Z,4.40
2023-04-26T08:49:17.981Z,3.03
2023-04-26T08:51:52.272Z,2.40
2023-04-26T08:54:25.744Z,3.13
2023-04-26T08:56:59.515Z,3.63
2023-04-26T08:59:33.297Z,2.60
2023-04-26T09:02:07.453Z,1.83
2023-04-26T09:04:41.185Z,4.38
2023-04-26T09:07:20.611Z,9.52
2023-04-26T09:09:57.320Z,4.10
2023-04-26T09:12:29.944Z,1.77
2023-04-26T09:15:03.762Z,3.13
2023-04-26T09:17:38.314Z,4.70
2023-04-26T09:20:22.603Z,2.90
2023-04-26T09:23:04.368Z,2.75
2023-04-26T09:25:37.346Z,2.95
2023-04-26T09:28:20.524Z,3.78
2023-04-26T09:30:52.943Z,1.80
2023-04-26T09:33:25.446Z,3.17
2023-04-26T09:36:11.614Z,4.15
2023-04-26T09:38:43.977Z,3.63
2023-04-26T09:41:16.309Z,2.75
2023-04-26T09:43:50.911Z,2.38
2023-04-26T09:46:23.954Z,3.13
2023-04-26T09:49:02.938Z,3.80
2023-04-26T09:51:35.962Z,1.92
2023-04-26T09:54:08.304Z,3.30
2023-04-26T09:56:40.778Z,2.83
2023-04-26T09:59:13.118Z,1.90
2023-04-26T10:01:45.532Z,2.13
2023-04-26T10:04:17.934Z,2.33
2023-04-26T10:06:51.073Z,1.88
2023-04-26T10:09:23.508Z,1.83
2023-04-26T10:11:56.401Z,4.30
2023-04-26T10:14:29.709Z,1.58
2023-04-26T10:17:03.558Z,2.45
2023-04-26T10:19:37.210Z,1.52
2023-04-26T10:22:14.806Z,0.95
2023-04-26T10:24:48.935Z,1.40
2023-04-26T10:27:52.014Z,2.70
2023-04-26T10:30:24.335Z,2.80
2023-04-26T10:33:14.499Z,2.30
2023-04-26T10:36:07.963Z,1.90
2023-04-26T10:39:03.523Z,2.22
2023-04-26T10:41:39.159Z,2.58
2023-04-26T10:44:40.090Z,4.60
2023-04-26T10:47:28.208Z,3.30
2023-04-26T10:50:08.844Z,2.13
2023-04-26T10:53:05.234Z,0.90
2023-04-26T10:55:42.604Z,2.08
2023-04-26T10:58:28.915Z,2.00
2023-04-26T11:01:05.621Z,1.20
2023-04-26T11:03:38.441Z,1.90
2023-04-26T11:06:13.095Z,1.75
2023-04-26T11:08:47.820Z,1.77
2023-04-26T11:11:26.327Z,2.95
2023-04-26T11:14:01.842Z,2.45
2023-04-26T11:16:34.262Z,2.38
2023-04-26T11:19:06.658Z,1.90
2023-04-26T11:21:39.998Z,1.70
2023-04-26T11:24:15.027Z,2.22
2023-04-26T11:26:52.310Z,1.75
2023-04-26T11:29:25.288Z,3.13
2023-04-26T11:31:58.660Z,5.25
2023-04-26T11:34:35.816Z,1.58
2023-04-26T11:37:08.150Z,14.75
2023-04-26T11:39:40.489Z,2.00
2023-04-26T11:42:13.417Z,2.42
2023-04-26T11:44:45.757Z,10.35
2023-04-26T11:47:19.436Z,6.97
2023-04-26T11:49:51.937Z,2.38
2023-04-26T11:52:24.335Z,5.60
2023-04-26T11:55:03.204Z,13.20
2023-04-26T11:57:36.501Z,2.35
2023-04-26T12:00:14.258Z,3.15
2023-04-26T12:02:47.616Z,3.58
2023-04-26T12:05:24.811Z,3.85
2023-04-26T12:07:58.708Z,1.90
2023-04-26T12:10:34.683Z,5.32
2023-04-26T12:13:08.718Z,3.78
2023-04-26T12:15:41.049Z,2.38
2023-04-26T12:18:13.579Z,3.17
2023-04-26T12:20:46.369Z,2.70
2023-04-26T12:23:18.721Z,2.47
2023-04-26T12:25:55.862Z,2.70
2023-04-26T12:28:28.861Z,1.83
2023-04-26T12:31:03.365Z,1.65
2023-04-26T12:33:35.868Z,2.75
2023-04-26T12:36:09.220Z,9.00
2023-04-26T12:38:42.117Z,2.85
2023-04-26T12:41:14.394Z,5.57
2023-04-26T12:43:47.372Z,1.73
2023-04-26T12:46:19.865Z,12.93
2023-04-26T12:48:53.393Z,4.60
2023-04-26T12:51:26.256Z,3.75
2023-04-26T12:53:58.626Z,2.45
2023-04-26T12:56:30.950Z,1.00
2023-04-26T12:59:04.333Z,5.75
2023-04-26T13:01:36.689Z,1.88
2023-04-26T13:04:09.410Z,1.15
2023-04-26T13:06:41.885Z,2.17
2023-04-26T13:09:14.395Z,1.55
2023-04-26T13:11:46.741Z,2.78
2023-04-26T13:14:19.754Z,4.78
2023-04-26T13:16:53.154Z,7.32
2023-04-26T13:19:25.659Z,8.07
2023-04-26T13:21:57.967Z,6.53
2023-04-26T13:24:30.564Z,3.15
2023-04-26T13:27:03.022Z,3.25
2023-04-26T13:29:36.262Z,2.80
2023-04-26T13:32:08.638Z,4.43
2023-04-26T13:34:40.934Z,4.05
2023-04-26T13:37:13.884Z,4.65
2023-04-26T13:39:46.440Z,2.80
2023-04-26T13:42:18.746Z,7.53
2023-04-26T13:44:51.773Z,6.97
2023-04-26T13:47:24.160Z,4.88
2023-04-26T13:49:56.485Z,3.58
2023-04-26T13:52:28.845Z,5.32
2023-04-26T13:55:02.339Z,6.35
2023-04-26T13:57:35.346Z,3.15
2023-04-26T14:00:09.722Z,4.82
2023-04-26T14:02:45.218Z,2.55
2023-04-26T14:05:17.794Z,5.28
2023-04-26T14:07:50.236Z,5.78
2023-04-26T14:10:22.744Z,6.95
2023-04-26T14:12:55.713Z,9.05
2023-04-26T14:15:28.705Z,7.80
2023-04-26T14:18:01.714Z,8.90
2023-04-26T14:20:34.067Z,4.28
2023-04-26T14:23:06.436Z,2.90
2023-04-26T14:25:38.744Z,4.93
2023-04-26T14:28:11.823Z,3.30
2023-04-26T14:30:45.405Z,4.03
2023-04-26T14:33:17.764Z,2.80
2023-04-26T14:35:50.147Z,3.95
2023-04-26T14:38:22.424Z,3.28
2023-04-26T14:40:54.774Z,3.72
2023-04-26T14:43:27.044Z,4.07
2023-04-26T14:46:00.855Z,4.35
2023-04-26T14:48:33.203Z,3.85
2023-04-26T14:51:05.778Z,5.30
2023-04-26T14:53:38.422Z,3.55
2023-04-26T14:56:10.801Z,4.60
2023-04-26T14:58:43.085Z,3.15
2023-04-26T15:01:16.543Z,4.80
2023-04-26T15:03:49.021Z,3.97
2023-04-26T15:06:21.668Z,3.92
2023-04-26T15:08:54.078Z,5.30
2023-04-26T15:11:26.519Z,3.75
2023-04-26T15:13:58.809Z,4.40
2023-04-26T15:16:31.803Z,7.47
2023-04-26T15:19:04.150Z,4.63
2023-04-26T15:21:36.421Z,6.40
2023-04-26T15:24:08.963Z,4.20
2023-04-26T15:26:41.475Z,5.00
2023-04-26T15:29:13.858Z,6.90
2023-04-26T15:31:46.942Z,4.95
2023-04-26T15:34:19.789Z,8.00
2023-04-26T15:36:52.793Z,6.07
2023-04-26T15:39:25.081Z,5.63
2023-04-26T15:41:58.197Z,4.82
2023-04-26T15:44:30.576Z,6.28
2023-04-26T15:47:03.600Z,5.03
2023-04-26T15:49:35.944Z,6.40
2023-04-26T15:52:08.556Z,5.00
2023-04-26T15:54:41.045Z,6.55
2023-04-26T15:57:13.354Z,5.32
2023-04-26T15:59:45.681Z,5.43
2023-04-26T16:02:19.085Z,6.88
2023-04-26T16:04:51.805Z,4.97
2023-04-26T16:07:24.211Z,5.22
2023-04-26T16:09:56.503Z,6.45
2023-04-26T16:12:28.781Z,7.05
2023-04-26T16:15:01.565Z,4.90
2023-04-26T16:17:35.307Z,5.35
2023-04-26T16:20:09.505Z,4.60
2023-04-26T16:22:43.051Z,7.95
2023-04-26T16:25:16.611Z,8.80
2023-04-26T16:27:49.026Z,6.13
2023-04-26T16:30:21.527Z,5.22
2023-04-26T16:32:54.607Z,7.45
2023-04-26T16:35:26.936Z,5.85
2023-04-26T16:37:59.273Z,6.57
2023-04-26T16:40:31.617Z,6.88
2023-04-26T16:43:05.914Z,5.25
2023-04-26T16:45:40.991Z,4.75
2023-04-26T16:48:13.975Z,6.05
2023-04-26T16:50:46.320Z,5.53
2023-04-26T16:53:18.920Z,6.70
2023-04-26T16:55:51.568Z,5.05
2023-04-26T16:58:24.138Z,23.05
2023-04-26T17:00:56.533Z,6.32
2023-04-26T17:03:29.621Z,5.75
2023-04-26T17:06:02.048Z,7.82
2023-04-26T17:08:34.352Z,19.70
2023-04-26T17:11:07.136Z,10.88
2023-04-26T17:13:39.508Z,9.73
2023-04-26T17:16:11.908Z,14.57
2023-04-26T17:18:45.414Z,6.13
2023-04-26T17:21:17.701Z,7.25
2023-04-26T17:23:50.119Z,8.80
2023-04-26T17:26:22.398Z,6.82
2023-04-26T17:28:55.536Z,6.18
2023-04-26T17:31:27.971Z,4.20
2023-04-26T17:34:04.052Z,5.93
2023-04-26T17:36:37.089Z,8.13
2023-04-26T17:39:09.340Z,5.05
2023-04-26T17:41:41.594Z,9.38
2023-04-26T17:44:13.876Z,4.70
2023-04-26T17:46:46.127Z,5.38
2023-04-26T17:49:20.689Z,8.00
2023-04-26T17:51:52.967Z,11.15
2023-04-26T17:54:25.307Z,7.70
2023-04-26T17:56:57.817Z,6.00
2023-04-26T17:59:30.106Z,13.48
2023-04-26T18:02:02.369Z,9.25
2023-04-26T18:04:35.555Z,8.68
2023-04-26T18:07:08.086Z,5.20
2023-04-26T18:09:40.799Z,8.68
2023-04-26T18:12:13.096Z,6.65
2023-04-26T18:14:45.407Z,5.53
2023-04-26T18:17:17.900Z,5.60
2023-04-26T18:19:50.933Z,7.50
2023-04-26T18:22:23.273Z,7.93
2023-04-26T18:24:55.585Z,5.75
2023-04-26T18:27:27.881Z,6.13
2023-04-26T18:30:00.342Z,6.32
2023-04-26T18:32:33.207Z,4.50
2023-04-26T18:35:07.607Z,3.45
2023-04-26T18:37:40.507Z,3.83
2023-04-26T18:40:13.207Z,5.05
2023-04-26T18:42:45.529Z,10.60
2023-04-26T18:45:18.024Z,6.55
2023-04-26T18:47:50.726Z,9.77
2023-04-26T18:50:25.299Z,10.98
2023-04-26T18:52:57.623Z,6.20
2023-04-26T18:55:29.848Z,8.70
2023-04-26T18:58:02.167Z,4.22
2023-04-26T19:00:34.468Z,11.35
2023-04-26T19:03:06.884Z,8.73
2023-04-26T19:05:41.779Z,8.05
2023-04-26T19:08:14.124Z,6.13
2023-04-26T19:10:46.410Z,7.70
2023-04-26T19:13:19.062Z,7.00
2023-04-26T19:15:51.763Z,6.00
2023-04-26T19:18:24.173Z,5.53
2023-04-26T19:20:57.146Z,4.45
2023-04-26T19:23:29.426Z,5.55
2023-04-26T19:26:03.806Z,7.40
2023-04-26T19:28:36.862Z,3.72
2023-04-26T19:31:09.183Z,6.85
2023-04-26T19:33:41.477Z,4.30
2023-04-26T19:36:14.635Z,4.85
2023-04-26T19:38:47.746Z,4.43
2023-04-26T19:41:20.031Z,5.30
2023-04-26T19:43:52.339Z,8.57
2023-04-26T19:46:24.967Z,7.30
2023-04-26T19:48:57.305Z,6.70
2023-04-26T19:51:31.011Z,12.05
2023-04-26T19:54:03.567Z,11.27
2023-04-26T19:56:35.881Z,6.50
2023-04-26T19:59:08.920Z,8.18
2023-04-26T20:01:41.211Z,6.20
2023-04-26T20:04:13.706Z,4.32
2023-04-26T20:06:46.657Z,4.65
2023-04-26T20:09:18.974Z,6.97
2023-04-26T20:11:51.244Z,5.88
2023-04-26T20:14:23.815Z,6.03
2023-04-26T20:16:56.480Z,5.80
2023-04-26T20:19:28.862Z,6.95
2023-04-26T20:22:01.828Z,6.07
2023-04-26T20:24:34.081Z,6.85
2023-04-26T20:27:06.374Z,8.38
2023-04-26T20:29:38.681Z,8.95
2023-04-26T20:32:11.007Z,9.25
2023-04-26T20:34:43.306Z,9.52
2023-04-26T20:37:16.385Z,6.10
2023-04-26T20:39:48.732Z,7.32
2023-04-26T20:42:21.328Z,4.18
2023-04-26T20:44:53.635Z,5.40
2023-04-26T20:47:26.034Z,8.60
2023-04-26T20:49:58.383Z,6.70
2023-04-26T20:52:31.464Z,9.25
2023-04-26T20:55:04.406Z,7.10
2023-04-26T20:57:37.722Z,9.88
2023-04-26T21:00:10.731Z,6.10
2023-04-26T21:02:50.147Z,5.60
2023-04-26T21:05:23.408Z,5.55
2023-04-26T21:07:56.370Z,5.97
2023-04-26T21:10:28.656Z,10.20
2023-04-26T21:13:00.958Z,4.68
2023-04-26T21:15:33.440Z,5.03
2023-04-26T21:18:06.070Z,4.70
2023-04-26T21:20:38.377Z,5.55
2023-04-26T21:23:11.343Z,5.90
2023-04-26T21:25:44.972Z,6.57
2023-04-26T21:28:17.260Z,13.93
2023-04-26T21:30:49.523Z,4.10
2023-04-26T21:33:21.792Z,6.43
2023-04-26T21:35:54.074Z,4.68
2023-04-26T21:38:27.102Z,5.47
2023-04-26T21:40:59.342Z,6.18
2023-04-26T21:43:31.696Z,7.53
2023-04-26T21:46:04.174Z,4.72
2023-04-26T21:48:38.103Z,4.90
2023-04-26T21:51:10.405Z,8.30
2023-04-26T21:53:43.356Z,5.68
2023-04-26T21:56:15.772Z,4.57
2023-04-26T21:58:48.055Z,5.43
2023-04-26T22:01:20.585Z,14.63
2023-04-26T22:03:53.090Z,5.97
2023-04-26T22:06:25.421Z,8.80
2023-04-26T22:08:58.382Z,4.75
2023-04-26T22:11:30.694Z,6.10
2023-04-26T22:14:03.038Z,4.45
2023-04-26T22:16:35.583Z,3.72
2023-04-26T22:19:08.011Z,7.22
2023-04-26T22:21:40.388Z,12.63
2023-04-26T22:24:13.402Z,5.07
2023-04-26T22:26:45.740Z,6.22
2023-04-26T22:29:18.071Z,6.13
2023-04-26T22:31:50.423Z,5.93
2023-04-26T22:34:22.839Z,5.18
2023-04-26T22:36:59.115Z,9.05
2023-04-26T22:39:36.799Z,3.78
2023-04-26T22:42:09.068Z,3.45
2023-04-26T22:44:41.440Z,5.43
2023-04-26T22:47:13.920Z,2.25
2023-04-26T22:49:46.304Z,5.47
2023-04-26T22:52:28.348Z,3.65
2023-04-26T22:55:05.523Z,11.52
2023-04-26T22:57:37.864Z,6.75
2023-04-26T23:00:11.718Z,6.32
2023-04-26T23:02:44.037Z,4.10
2023-04-26T23:05:16.859Z,5.97
2023-04-26T23:07:49.203Z,4.43
2023-04-26T23:10:22.787Z,7.50
2023-04-26T23:12:55.042Z,19.98
2023-04-26T23:15:27.453Z,3.38
2023-04-26T23:18:00.315Z,6.72
2023-04-26T23:20:32.904Z,3.08
2023-04-26T23:23:05.238Z,7.75
2023-04-26T23:25:41.350Z,9.00
2023-04-26T23:28:13.717Z,2.75
2023-04-26T23:30:46.008Z,7.05
2023-04-26T23:33:18.361Z,5.20
2023-04-26T23:35:51.471Z,4.85
2023-04-26T23:38:23.840Z,2.33
2023-04-26T23:40:56.911Z,2.58
2023-04-26T23:43:29.199Z,5.00
2023-04-26T23:46:01.584Z,4.05
2023-04-26T23:48:33.920Z,4.88
2023-04-26T23:51:06.458Z,4.95
2023-04-26T23:53:38.934Z,3.88
2023-04-26T23:56:12.532Z,6.22
2023-04-26T23:58:45.007Z,5.45
